createdAt,value
2024-03-24T00:00:13.134Z,3.8789
2024-03-24T00:01:16.161Z,3.8816
2024-03-24T00:02:19.195Z,3.8569
2024-03-24T00:03:22.215Z,3.8652
2024-03-24T00:04:25.288Z,3.9367
2024-03-24T00:05:28.323Z,3.9210
2024-03-24T00:06:31.367Z,3.9338
2024-03-24T00:07:34.396Z,3.9554
2024-03-24T00:08:37.442Z,3.9686
2024-03-24T00:09:40.495Z,3.9835
2024-03-24T00:10:43.533Z,4.0255
2024-03-24T00:11:46.574Z,4.0120
2024-03-24T00:12:49.599Z,3.9974
2024-03-24T00:13:52.652Z,4.0318
2024-03-24T00:14:55.686Z,4.0155
2024-03-24T00:15:59.066Z,4.0109
2024-03-24T00:17:02.121Z,4.0357
2024-03-24T00:18:05.126Z,4.0496
2024-03-24T00:19:08.219Z,4.0324
2024-03-24T00:20:11.252Z,4.0879
2024-03-24T00:21:14.261Z,4.0741
2024-03-24T00:22:17.550Z,4.1039
2024-03-24T00:23:20.590Z,4.1108
2024-03-24T00:24:23.728Z,4.1458
2024-03-24T00:25:26.734Z,4.1711
2024-03-24T00:26:29.769Z,4.2016
2024-03-24T00:27:32.745Z,4.2167
2024-03-24T00:28:35.921Z,4.1768
2024-03-24T00:29:38.939Z,4.1904
2024-03-24T00:30:41.900Z,4.1820
2024-03-24T00:31:44.983Z,4.1735
2024-03-24T00:32:48.018Z,4.1329
2024-03-24T00:33:51.040Z,4.1200
2024-03-24T00:34:54.410Z,4.1556
2024-03-24T00:35:57.608Z,4.1757
2024-03-24T00:37:00.797Z,4.1639
2024-03-24T00:38:03.825Z,4.1527
2024-03-24T00:39:06.883Z,4.1502
2024-03-24T00:40:09.918Z,4.0772
2024-03-24T00:41:12.909Z,4.0563
2024-03-24T00:42:16.004Z,4.0780
2024-03-24T00:43:19.058Z,4.0771
2024-03-24T00:44:22.099Z,4.1185
2024-03-24T00:45:25.146Z,4.0893
2024-03-24T00:46:28.180Z,4.1065
2024-03-24T00:47:31.244Z,4.0682
2024-03-24T00:48:34.247Z,4.0584
2024-03-24T00:49:37.244Z,4.0201
2024-03-24T00:50:40.347Z,4.0105
2024-03-24T00:51:43.362Z,3.9882
2024-03-24T00:52:46.669Z,4.0133
2024-03-24T00:53:49.766Z,4.0140
2024-03-24T00:54:52.787Z,4.0117
2024-03-24T00:55:55.844Z,4.0347
2024-03-24T00:56:58.901Z,4.0262
2024-03-24T00:58:02.275Z,4.0023
2024-03-24T00:59:05.286Z,3.9556
2024-03-24T01:00:08.324Z,3.9129
2024-03-24T01:01:11.391Z,3.9272
2024-03-24T01:02:14.355Z,3.9044
2024-03-24T01:03:17.451Z,3.9043
2024-03-24T01:04:20.507Z,3.9471
2024-03-24T01:05:23.556Z,3.9092
2024-03-24T01:06:26.601Z,3.8884
2024-03-24T01:07:29.676Z,3.8692
2024-03-24T01:08:32.724Z,3.8578
2024-03-24T01:09:35.712Z,3.8623
2024-03-24T01:10:38.752Z,3.8583
2024-03-24T01:11:41.900Z,3.8369
2024-03-24T01:12:44.883Z,3.8449
2024-03-24T01:13:47.900Z,3.8161
2024-03-24T01:14:50.904Z,3.8092
2024-03-24T01:15:53.930Z,3.7915
2024-03-24T01:16:56.893Z,3.7793
2024-03-24T01:18:00.015Z,3.7350
2024-03-24T01:19:03.094Z,3.7492
2024-03-24T01:20:06.073Z,3.7559
2024-03-24T01:21:09.150Z,3.7268
2024-03-24T01:22:12.202Z,3.7068
2024-03-24T01:23:15.198Z,3.7037
2024-03-24T01:24:18.250Z,3.7150
2024-03-24T01:25:21.292Z,3.6875
2024-03-24T01:26:24.392Z,3.6710
2024-03-24T01:27:27.422Z,3.6807
2024-03-24T01:28:30.542Z,3.6848
2024-03-24T01:29:33.532Z,3.7135
2024-03-24T01:30:36.581Z,3.6874
2024-03-24T01:31:39.652Z,3.6743
2024-03-24T01:32:42.652Z,3.6666
2024-03-24T01:33:45.673Z,3.6529
2024-03-24T01:34:48.967Z,3.6506
2024-03-24T01:35:52.045Z,3.6426
2024-03-24T01:36:55.061Z,3.6569
2024-03-24T01:37:58.062Z,3.6411
2024-03-24T01:39:01.132Z,3.6371
2024-03-24T01:40:04.167Z,3.6323
2024-03-24T01:41:07.189Z,3.6132
2024-03-24T01:42:10.196Z,3.5636
2024-03-24T01:43:13.298Z,3.5660
2024-03-24T01:44:16.342Z,3.5448
2024-03-24T01:45:19.353Z,3.4546
2024-03-24T01:46:22.462Z,3.4429
2024-03-24T01:47:25.486Z,3.4334
2024-03-24T01:48:28.493Z,3.4194
2024-03-24T01:49:31.675Z,3.3666
2024-03-24T01:50:34.703Z,3.3935
2024-03-24T01:51:37.684Z,3.3954
2024-03-24T01:52:40.715Z,3.3540
2024-03-24T01:53:43.684Z,3.3272
2024-03-24T01:54:46.746Z,3.3054
2024-03-24T01:55:49.763Z,3.3175
2024-03-24T01:56:52.821Z,3.3031
2024-03-24T01:57:55.867Z,3.2991
2024-03-24T01:58:58.915Z,3.2769
2024-03-24T02:00:01.915Z,3.2091
2024-03-24T02:01:04.936Z,3.1948
2024-03-24T02:02:07.946Z,3.1380
2024-03-24T02:03:11.023Z,3.0882
2024-03-24T02:04:14.132Z,3.0371
2024-03-24T02:05:17.088Z,3.0408
2024-03-24T02:06:20.131Z,3.0530
2024-03-24T02:07:23.166Z,3.0460
2024-03-24T02:08:26.190Z,2.9855
2024-03-24T02:09:29.234Z,2.9809
2024-03-24T02:10:32.275Z,2.9613
2024-03-24T02:11:35.318Z,2.9483
2024-03-24T02:12:38.312Z,2.9265
2024-03-24T02:13:41.426Z,2.9303
2024-03-24T02:14:44.441Z,2.8860
2024-03-24T02:15:47.467Z,2.8585
2024-03-24T02:16:50.535Z,2.8518
2024-03-24T02:17:57.815Z,2.8530
2024-03-24T02:18:55.646Z,2.8214
2024-03-24T02:19:58.644Z,2.8143
2024-03-24T02:21:01.726Z,2.8339
2024-03-24T02:22:04.755Z,2.7980
2024-03-24T02:23:07.914Z,2.7674
2024-03-24T02:24:10.907Z,2.7364
2024-03-24T02:25:13.920Z,2.6936
2024-03-24T02:26:17.267Z,2.6987
2024-03-24T02:27:20.344Z,2.6430
2024-03-24T02:28:23.384Z,2.6084
2024-03-24T02:29:26.674Z,2.5713
2024-03-24T02:30:26.588Z,2.5308
2024-03-24T02:31:29.577Z,2.5105
2024-03-24T02:32:32.669Z,2.4914
2024-03-24T02:33:35.703Z,2.4743
2024-03-24T02:34:38.723Z,2.4908
2024-03-24T02:35:41.726Z,2.5123
2024-03-24T02:36:44.753Z,2.5336
2024-03-24T02:37:47.799Z,2.5792
2024-03-24T02:38:50.844Z,2.6578
2024-03-24T02:39:53.952Z,2.6789
2024-03-24T02:40:56.985Z,2.7232
2024-03-24T02:42:00.072Z,2.7553
2024-03-24T02:43:03.109Z,2.7694
2024-03-24T02:44:06.149Z,2.7838
2024-03-24T02:45:09.244Z,2.7964
2024-03-24T02:46:12.273Z,2.8134
2024-03-24T02:47:15.488Z,2.8360
2024-03-24T02:48:18.532Z,2.8584
2024-03-24T02:49:21.554Z,2.8784
2024-03-24T02:50:24.586Z,2.8833
2024-03-24T02:51:27.906Z,2.9219
2024-03-24T02:52:30.993Z,2.9502
2024-03-24T02:53:34.068Z,2.9281
2024-03-24T02:54:37.136Z,2.9192
2024-03-24T02:55:40.136Z,2.9107
2024-03-24T02:56:43.154Z,2.8777
2024-03-24T02:57:46.353Z,2.8984
2024-03-24T02:58:49.351Z,2.8992
2024-03-24T02:59:52.617Z,2.9066
2024-03-24T03:00:55.624Z,2.9315
2024-03-24T03:01:58.677Z,2.9549
2024-03-24T03:03:01.712Z,2.9358
2024-03-24T03:04:04.708Z,2.8861
2024-03-24T03:05:07.811Z,2.9232
2024-03-24T03:06:11.170Z,2.8906
2024-03-24T03:07:14.174Z,2.8809
2024-03-24T03:08:17.195Z,2.9179
2024-03-24T03:09:20.285Z,2.9446
2024-03-24T03:10:23.324Z,2.9462
2024-03-24T03:11:26.341Z,2.9601
2024-03-24T03:12:29.421Z,2.9601
2024-03-24T03:13:32.409Z,2.9621
2024-03-24T03:14:35.478Z,2.9545
2024-03-24T03:15:38.687Z,2.9228
2024-03-24T03:16:41.692Z,2.8968
2024-03-24T03:17:44.673Z,2.8668
2024-03-24T03:18:47.963Z,2.8740
2024-03-24T03:19:50.990Z,2.8521
2024-03-24T03:20:54.043Z,2.8774
2024-03-24T03:21:57.042Z,2.8499
2024-03-24T03:23:00.144Z,2.8118
2024-03-24T03:24:03.159Z,2.8308
2024-03-24T03:25:06.205Z,2.7780
2024-03-24T03:26:09.240Z,2.7452
2024-03-24T03:27:12.229Z,2.7708
2024-03-24T03:28:15.333Z,2.7605
2024-03-24T03:29:18.364Z,2.7289
2024-03-24T03:30:21.443Z,2.7206
2024-03-24T03:31:24.443Z,2.7299
2024-03-24T03:32:27.498Z,2.7219
2024-03-24T03:33:30.555Z,2.7358
2024-03-24T03:34:33.565Z,2.6526
2024-03-24T03:35:36.604Z,2.6102
2024-03-24T03:36:39.640Z,2.5913
2024-03-24T03:37:42.735Z,2.5632
2024-03-24T03:38:45.818Z,2.5726
2024-03-24T03:39:48.882Z,2.5412
2024-03-24T03:40:51.901Z,2.5373
2024-03-24T03:41:55.166Z,2.5115
2024-03-24T03:42:58.189Z,2.2574
2024-03-24T03:44:01.255Z,2.1344
2024-03-24T03:45:04.281Z,2.0734
2024-03-24T03:46:07.320Z,2.0473
2024-03-24T03:47:10.306Z,2.0347
2024-03-24T03:48:13.398Z,2.0321
2024-03-24T03:49:16.523Z,2.0192
2024-03-24T03:50:19.574Z,1.9923
2024-03-24T03:51:22.618Z,2.0126
2024-03-24T03:52:25.668Z,2.0270
2024-03-24T03:53:28.686Z,2.0611
2024-03-24T03:54:31.731Z,2.1049
2024-03-24T03:55:34.750Z,2.1421
2024-03-24T03:56:37.861Z,2.1746
2024-03-24T03:57:40.867Z,2.2349
2024-03-24T03:58:43.891Z,2.2427
2024-03-24T03:59:46.987Z,2.2893
2024-03-24T04:00:49.949Z,2.3159
2024-03-24T04:01:52.931Z,2.3613
2024-03-24T04:02:55.972Z,2.3881
2024-03-24T04:03:58.942Z,2.4375
2024-03-24T04:05:02.044Z,2.4529
2024-03-24T04:06:05.067Z,2.4583
2024-03-24T04:07:08.119Z,2.4922
2024-03-24T04:08:11.186Z,2.5090
2024-03-24T04:09:14.213Z,2.5213
2024-03-24T04:10:17.395Z,2.5270
2024-03-24T04:11:20.420Z,2.5222
2024-03-24T04:12:23.472Z,2.5216
2024-03-24T04:13:26.775Z,2.5097
2024-03-24T04:14:29.795Z,2.5412
2024-03-24T04:15:32.781Z,2.5645
2024-03-24T04:16:35.970Z,2.5344
2024-03-24T04:17:38.953Z,2.5178
2024-03-24T04:18:42.023Z,2.5114
2024-03-24T04:19:45.028Z,2.5084
2024-03-24T04:20:48.294Z,2.5216
2024-03-24T04:21:51.343Z,2.5049
2024-03-24T04:22:54.373Z,2.4862
2024-03-24T04:23:57.423Z,2.4900
2024-03-24T04:25:00.528Z,2.4979
2024-03-24T04:26:03.525Z,2.5154
2024-03-24T04:27:06.544Z,2.5225
2024-03-24T04:28:09.557Z,2.5351
2024-03-24T04:29:12.562Z,2.5640
2024-03-24T04:30:15.682Z,2.5804
2024-03-24T04:31:18.689Z,2.5820
2024-03-24T04:32:21.745Z,2.5651
2024-03-24T04:33:24.755Z,2.5351
2024-03-24T04:34:27.766Z,2.5143
2024-03-24T04:35:30.857Z,2.5043
2024-03-24T04:36:34.043Z,2.4848
2024-03-24T04:37:37.046Z,2.4725
2024-03-24T04:38:40.059Z,2.4712
2024-03-24T04:39:43.326Z,2.5004
2024-03-24T04:40:46.396Z,2.4968
2024-03-24T04:41:49.475Z,2.4710
2024-03-24T04:42:52.643Z,2.4476
2024-03-24T04:43:55.782Z,2.4448
2024-03-24T04:44:58.843Z,2.4298
2024-03-24T04:46:01.894Z,2.4362
2024-03-24T04:47:04.919Z,2.4593
2024-03-24T04:48:07.955Z,2.4425
2024-03-24T04:49:11.016Z,2.4406
2024-03-24T04:50:14.042Z,2.4473
2024-03-24T04:51:17.143Z,2.4495
2024-03-24T04:52:20.184Z,2.4761
2024-03-24T04:53:23.252Z,2.5081
2024-03-24T04:54:26.515Z,2.4925
2024-03-24T04:55:29.586Z,2.4500
2024-03-24T04:56:32.612Z,2.4374
2024-03-24T04:57:35.632Z,2.4749
2024-03-24T04:58:38.691Z,2.5017
2024-03-24T04:59:41.784Z,2.5161
2024-03-24T05:00:44.868Z,2.4939
2024-03-24T05:01:47.884Z,2.4958
2024-03-24T05:02:50.943Z,2.5010
2024-03-24T05:03:53.961Z,2.4700
2024-03-24T05:04:56.956Z,2.4835
2024-03-24T05:06:00.049Z,2.4949
2024-03-24T05:07:03.088Z,2.4457
2024-03-24T05:08:06.114Z,2.4279
2024-03-24T05:09:09.123Z,2.4934
2024-03-24T05:10:12.219Z,2.4976
2024-03-24T05:11:15.203Z,2.4888
2024-03-24T05:12:18.351Z,2.4900
2024-03-24T05:13:21.343Z,2.3722
2024-03-24T05:14:24.387Z,2.2828
2024-03-24T05:15:27.455Z,2.2230
2024-03-24T05:16:30.489Z,2.1685
2024-03-24T05:17:33.631Z,2.0564
2024-03-24T05:18:36.800Z,1.9021
2024-03-24T05:19:39.834Z,1.8138
2024-03-24T05:20:42.869Z,1.7155
2024-03-24T05:21:45.935Z,1.6638
2024-03-24T05:22:49.036Z,1.6748
2024-03-24T05:23:52.104Z,1.6653
2024-03-24T05:24:55.362Z,1.5922
2024-03-24T05:25:58.365Z,1.5588
2024-03-24T05:27:01.465Z,1.5159
2024-03-24T05:28:04.543Z,1.4864
2024-03-24T05:29:07.572Z,1.4407
2024-03-24T05:30:10.643Z,1.3298
2024-03-24T05:31:13.919Z,1.2772
2024-03-24T05:32:16.952Z,1.2749
2024-03-24T05:33:19.992Z,1.2213
2024-03-24T05:34:23.032Z,1.1402
2024-03-24T05:35:26.068Z,0.9939
2024-03-24T05:36:28.561Z,0.0000
2024-03-24T05:37:30.997Z,0.0000
2024-03-24T05:38:33.593Z,0.0000
2024-03-24T05:39:36.049Z,0.0000
2024-03-24T05:40:38.533Z,0.0000
2024-03-24T05:41:41.109Z,0.0000
2024-03-24T05:42:43.624Z,0.0000
2024-03-24T05:43:46.237Z,0.0000
2024-03-24T05:44:48.727Z,0.0000
2024-03-24T05:45:51.191Z,0.0000
2024-03-24T05:46:53.771Z,0.0000
2024-03-24T05:47:56.225Z,0.0000
2024-03-24T05:48:58.701Z,0.0000
2024-03-24T05:50:01.198Z,0.0000
2024-03-24T05:51:03.699Z,0.0000
2024-03-24T05:52:06.161Z,0.0000
2024-03-24T05:53:08.808Z,0.0000
2024-03-24T05:54:11.315Z,0.0000
2024-03-24T05:55:13.756Z,0.0000
2024-03-24T05:56:16.307Z,0.0000
2024-03-24T05:57:18.792Z,0.0000
2024-03-24T05:58:21.255Z,0.0000
2024-03-24T05:59:23.896Z,0.0000
2024-03-24T06:00:26.505Z,0.0000
2024-03-24T06:01:28.922Z,0.0000
2024-03-24T06:02:31.360Z,0.0000
2024-03-24T06:03:34.087Z,0.0000
2024-03-24T06:04:36.482Z,0.0000
2024-03-24T06:05:38.900Z,0.0000
2024-03-24T06:06:41.353Z,0.0000
2024-03-24T06:07:43.811Z,0.0000
2024-03-24T06:08:46.375Z,0.0000
2024-03-24T06:09:48.791Z,0.0000
2024-03-24T06:10:51.514Z,0.0000
2024-03-24T06:11:54.033Z,0.0000
2024-03-24T06:12:56.440Z,0.0000
2024-03-24T06:13:58.960Z,0.0000
2024-03-24T06:15:01.382Z,0.0000
2024-03-24T06:16:03.832Z,0.0000
2024-03-24T06:17:06.257Z,0.0000
2024-03-24T06:18:08.945Z,0.0000
2024-03-24T06:19:14.213Z,0.0000
2024-03-24T06:20:13.735Z,0.0000
2024-03-24T06:21:16.157Z,0.0000
2024-03-24T06:22:18.574Z,0.0000
2024-03-24T06:23:21.022Z,0.0000
2024-03-24T06:24:23.461Z,0.0000
2024-03-24T06:25:25.911Z,0.0000
2024-03-24T06:26:28.474Z,0.0000
2024-03-24T06:27:30.925Z,0.0000
2024-03-24T06:28:33.603Z,0.0000
2024-03-24T06:29:36.047Z,0.0000
2024-03-24T06:30:38.667Z,0.0000
2024-03-24T06:31:43.842Z,0.0000
2024-03-24T06:32:44.808Z,0.0000
2024-03-24T06:33:47.277Z,0.0000
2024-03-24T06:34:49.713Z,0.0000
2024-03-24T06:35:52.311Z,0.0000
2024-03-24T06:36:54.718Z,0.0000
2024-03-24T06:37:57.179Z,0.0000
2024-03-24T06:38:59.604Z,0.0000
2024-03-24T06:40:02.031Z,0.0000
2024-03-24T06:41:04.479Z,0.0000
2024-03-24T06:42:07.027Z,0.0000
2024-03-24T06:43:09.521Z,0.0000
2024-03-24T06:44:11.914Z,0.0000
2024-03-24T06:45:14.382Z,0.0000
2024-03-24T06:46:16.958Z,0.0000
2024-03-24T06:47:19.398Z,0.0000
2024-03-24T06:48:21.865Z,0.0000
2024-03-24T06:49:24.303Z,0.0000
2024-03-24T06:50:26.874Z,0.0000
2024-03-24T06:51:29.312Z,0.0000
2024-03-24T06:52:32.040Z,0.0000
2024-03-24T06:53:34.800Z,0.0000
2024-03-24T06:54:37.370Z,0.0000
2024-03-24T06:55:39.794Z,0.0000
2024-03-24T06:56:42.554Z,0.0000
2024-03-24T06:57:45.284Z,0.0000
2024-03-24T06:58:47.745Z,0.0000
2024-03-24T06:59:50.182Z,0.0000
2024-03-24T07:00:52.618Z,0.0000
2024-03-24T07:01:55.200Z,0.0000
2024-03-24T07:02:57.638Z,0.0000
2024-03-24T07:04:00.299Z,0.0000
2024-03-24T07:05:02.760Z,0.0000
2024-03-24T07:06:05.429Z,0.0000
2024-03-24T07:07:07.842Z,0.0000
2024-03-24T07:08:10.279Z,0.0000
2024-03-24T07:09:12.742Z,0.0000
2024-03-24T07:10:15.183Z,0.0000
2024-03-24T07:11:17.762Z,0.0000
2024-03-24T07:12:20.189Z,0.0000
2024-03-24T07:13:22.830Z,0.0000
2024-03-24T07:14:25.272Z,0.0000
2024-03-24T07:15:27.741Z,0.0000
2024-03-24T07:16:30.199Z,0.0000
2024-03-24T07:17:32.621Z,0.0000
2024-03-24T07:18:35.041Z,0.0000
2024-03-24T07:19:37.601Z,0.0000
2024-03-24T07:20:40.040Z,0.0000
2024-03-24T07:21:42.448Z,0.0000
2024-03-24T07:22:44.940Z,0.0000
2024-03-24T07:23:47.385Z,0.0000
2024-03-24T07:24:49.930Z,0.0000
2024-03-24T07:25:52.632Z,0.0000
2024-03-24T07:26:55.133Z,0.0000
2024-03-24T07:27:58.069Z,2.4061
2024-03-24T07:29:01.124Z,3.8519
2024-03-24T07:30:04.161Z,3.8038
2024-03-24T07:31:07.180Z,3.7700
2024-03-24T07:32:10.231Z,3.7653
2024-03-24T07:33:13.410Z,3.8470
2024-03-24T07:34:16.434Z,3.7262
2024-03-24T07:35:19.486Z,3.7253
2024-03-24T07:36:22.509Z,3.6736
2024-03-24T07:37:25.520Z,3.6780
2024-03-24T07:38:28.543Z,3.7215
2024-03-24T07:39:31.576Z,3.7630
2024-03-24T07:40:34.871Z,3.9194
2024-03-24T07:41:37.914Z,4.0065
2024-03-24T07:42:43.515Z,4.2210
2024-03-24T07:43:44.061Z,4.3869
2024-03-24T07:44:47.111Z,4.3836
2024-03-24T07:45:50.127Z,4.4328
2024-03-24T07:46:53.226Z,4.3414
2024-03-24T07:47:56.258Z,4.4046
2024-03-24T07:48:59.298Z,4.6042
2024-03-24T07:50:02.335Z,4.5233
2024-03-24T07:51:05.342Z,4.5349
2024-03-24T07:52:08.361Z,4.5591
2024-03-24T07:53:11.390Z,4.6870
2024-03-24T07:54:14.526Z,4.7227
2024-03-24T07:55:17.584Z,4.5738
2024-03-24T07:56:20.557Z,4.6034
2024-03-24T07:57:23.831Z,4.5637
2024-03-24T07:58:27.053Z,4.5579
2024-03-24T07:59:30.198Z,4.6565
2024-03-24T08:00:33.253Z,4.8092
2024-03-24T08:01:36.305Z,4.7019
2024-03-24T08:02:39.387Z,4.6144
2024-03-24T08:03:42.381Z,4.5981
2024-03-24T08:04:45.471Z,4.6921
2024-03-24T08:05:48.548Z,4.7117
2024-03-24T08:06:51.630Z,4.7002
2024-03-24T08:07:56.440Z,4.7171
2024-03-24T08:08:56.422Z,4.7599
2024-03-24T08:09:59.651Z,4.7116
2024-03-24T08:11:02.703Z,4.7684
2024-03-24T08:12:05.831Z,4.9409
2024-03-24T08:13:08.841Z,5.1868
2024-03-24T08:14:11.936Z,5.1922
2024-03-24T08:15:14.953Z,5.1063
2024-03-24T08:16:17.965Z,4.9863
2024-03-24T08:17:21.267Z,4.9311
2024-03-24T08:18:24.301Z,4.7709
2024-03-24T08:19:27.341Z,4.8217
2024-03-24T08:20:30.431Z,4.8319
2024-03-24T08:21:33.522Z,4.9285
2024-03-24T08:22:36.804Z,4.8218
2024-03-24T08:23:39.909Z,4.7724
2024-03-24T08:24:42.928Z,4.8828
2024-03-24T08:25:45.896Z,4.9203
2024-03-24T08:26:48.968Z,4.7530
2024-03-24T08:27:51.981Z,4.8988
2024-03-24T08:28:55.007Z,4.9886
2024-03-24T08:29:58.052Z,4.8642
2024-03-24T08:31:01.061Z,4.8344
2024-03-24T08:32:04.074Z,4.7889
2024-03-24T08:33:07.181Z,4.7889
2024-03-24T08:34:10.220Z,4.7490
2024-03-24T08:35:13.221Z,4.8869
2024-03-24T08:36:16.629Z,4.9614
2024-03-24T08:37:19.696Z,4.9711
2024-03-24T08:38:22.869Z,4.8892
2024-03-24T08:39:25.889Z,4.9151
2024-03-24T08:40:31.120Z,4.9846
2024-03-24T08:41:31.911Z,4.8657
2024-03-24T08:42:34.904Z,4.8469
2024-03-24T08:43:37.899Z,4.7678
2024-03-24T08:44:40.958Z,4.8000
2024-03-24T08:45:43.994Z,4.7819
2024-03-24T08:46:47.043Z,4.7507
2024-03-24T08:47:50.058Z,5.4734
2024-03-24T08:48:53.087Z,5.7747
2024-03-24T08:49:56.147Z,6.2335
2024-03-24T08:50:59.126Z,6.2414
2024-03-24T08:52:02.253Z,5.9563
2024-03-24T08:53:05.258Z,5.6652
2024-03-24T08:54:08.567Z,5.6394
2024-03-24T08:55:11.704Z,5.2919
2024-03-24T08:56:14.700Z,4.9872
2024-03-24T08:57:17.736Z,4.7530
2024-03-24T08:58:20.800Z,4.7852
2024-03-24T08:59:23.996Z,4.6540
2024-03-24T09:00:27.190Z,4.7602
2024-03-24T09:01:30.283Z,4.6760
2024-03-24T09:02:33.503Z,4.4055
2024-03-24T09:03:36.600Z,4.3983
2024-03-24T09:04:39.690Z,4.5293
2024-03-24T09:05:42.756Z,4.8720
2024-03-24T09:06:45.769Z,5.0820
2024-03-24T09:07:48.817Z,5.8618
2024-03-24T09:08:51.865Z,6.0238
2024-03-24T09:09:54.893Z,5.5750
2024-03-24T09:10:57.888Z,5.6383
2024-03-24T09:12:01.046Z,5.8698
2024-03-24T09:13:04.060Z,6.3175
2024-03-24T09:14:07.076Z,6.8234
2024-03-24T09:15:10.267Z,7.2622
2024-03-24T09:16:13.239Z,7.5384
2024-03-24T09:17:16.392Z,7.4868
2024-03-24T09:18:19.495Z,7.6745
2024-03-24T09:19:22.548Z,7.7572
2024-03-24T09:20:25.620Z,7.4688
2024-03-24T09:21:28.643Z,7.3962
2024-03-24T09:22:31.657Z,7.3450
2024-03-24T09:23:34.706Z,8.0034
2024-03-24T09:24:37.752Z,8.0345
2024-03-24T09:25:40.772Z,8.1851
2024-03-24T09:26:43.822Z,8.7206
2024-03-24T09:27:46.869Z,9.2703
2024-03-24T09:28:49.889Z,9.2336
2024-03-24T09:29:52.989Z,9.3971
2024-03-24T09:30:56.033Z,9.7093
2024-03-24T09:31:59.075Z,10.1295
2024-03-24T09:33:02.092Z,9.8996
2024-03-24T09:34:05.354Z,8.8102
2024-03-24T09:35:13.272Z,9.2298
2024-03-24T09:36:10.583Z,9.4949
2024-03-24T09:37:13.575Z,8.1903
2024-03-24T09:38:16.856Z,7.4334
2024-03-24T09:39:19.962Z,7.1698
2024-03-24T09:40:23.054Z,7.9451
2024-03-24T09:41:26.096Z,7.1993
2024-03-24T09:42:29.100Z,6.6974
2024-03-24T09:43:32.160Z,6.5507
2024-03-24T09:44:35.234Z,7.2281
2024-03-24T09:45:38.260Z,8.0688
2024-03-24T09:46:41.242Z,7.7022
2024-03-24T09:47:44.301Z,7.0903
2024-03-24T09:48:47.301Z,6.7895
2024-03-24T09:49:50.319Z,6.8809
2024-03-24T09:50:53.393Z,8.0728
2024-03-24T09:51:56.452Z,8.8650
2024-03-24T09:52:59.489Z,9.7861
2024-03-24T09:54:02.553Z,8.9679
2024-03-24T09:55:05.580Z,9.7441
2024-03-24T09:56:08.608Z,10.4190
2024-03-24T09:57:11.663Z,9.4849
2024-03-24T09:58:17.214Z,9.0934
2024-03-24T09:59:17.462Z,8.5556
2024-03-24T10:00:20.724Z,8.3413
2024-03-24T10:01:23.826Z,9.7001
2024-03-24T10:02:26.845Z,10.2325
2024-03-24T10:03:29.922Z,9.7640
2024-03-24T10:04:32.922Z,9.9346
2024-03-24T10:05:35.981Z,8.9837
2024-03-24T10:06:38.996Z,8.2462
2024-03-24T10:07:42.053Z,7.8344
2024-03-24T10:08:45.104Z,7.6521
2024-03-24T10:09:48.187Z,7.3605
2024-03-24T10:10:51.163Z,7.1929
2024-03-24T10:11:54.314Z,7.1465
2024-03-24T10:12:57.334Z,7.1619
2024-03-24T10:14:00.364Z,6.8200
2024-03-24T10:15:03.389Z,6.5835
2024-03-24T10:16:06.400Z,6.3314
2024-03-24T10:17:09.433Z,6.2648
2024-03-24T10:18:09.652Z,6.2040
2024-03-24T10:19:12.697Z,6.1169
2024-03-24T10:20:15.746Z,6.1685
2024-03-24T10:21:18.741Z,6.0583
2024-03-24T10:22:22.090Z,5.7095
2024-03-24T10:23:25.100Z,5.5449
2024-03-24T10:24:28.140Z,5.5179
2024-03-24T10:25:31.198Z,5.3266
2024-03-24T10:26:34.269Z,5.2399
2024-03-24T10:27:37.297Z,5.4014
2024-03-24T10:28:40.313Z,5.4864
2024-03-24T10:29:43.429Z,5.4051
2024-03-24T10:30:46.445Z,5.4013
2024-03-24T10:31:52.731Z,5.2884
2024-03-24T10:32:52.843Z,5.6266
2024-03-24T10:33:55.848Z,5.8794
2024-03-24T10:34:58.858Z,6.2933
2024-03-24T10:36:02.032Z,6.8910
2024-03-24T10:37:05.041Z,7.1813
2024-03-24T10:38:08.189Z,7.7061
2024-03-24T10:39:11.242Z,7.6866
2024-03-24T10:40:14.371Z,6.6790
2024-03-24T10:41:17.420Z,7.0609
2024-03-24T10:42:20.459Z,7.4392
2024-03-24T10:43:23.525Z,8.0112
2024-03-24T10:44:26.502Z,8.0528
2024-03-24T10:45:29.542Z,7.6062
2024-03-24T10:46:32.579Z,7.6524
2024-03-24T10:47:35.712Z,8.1309
2024-03-24T10:48:38.730Z,8.1750
2024-03-24T10:49:41.789Z,8.1099
2024-03-24T10:50:44.814Z,8.6672
2024-03-24T10:51:47.855Z,8.5171
2024-03-24T10:52:53.250Z,8.4963
2024-03-24T10:53:53.318Z,9.1664
2024-03-24T10:54:56.348Z,8.9237
2024-03-24T10:55:59.379Z,9.2979
2024-03-24T10:57:02.394Z,9.4026
2024-03-24T10:58:05.413Z,9.3881
2024-03-24T10:59:11.307Z,8.9626
2024-03-24T11:00:08.717Z,8.7015
2024-03-24T11:01:11.999Z,8.2952
2024-03-24T11:02:15.077Z,8.1581
2024-03-24T11:03:18.131Z,7.7826
2024-03-24T11:04:21.149Z,7.3208
2024-03-24T11:05:24.160Z,6.9422
2024-03-24T11:06:27.180Z,6.4731
2024-03-24T11:07:30.246Z,5.4211
2024-03-24T11:08:33.269Z,5.0685
2024-03-24T11:09:36.289Z,4.6693
2024-03-24T11:10:39.346Z,4.3638
2024-03-24T11:11:42.478Z,3.9624
2024-03-24T11:12:45.609Z,3.6613
2024-03-24T11:13:48.778Z,3.5202
2024-03-24T11:14:51.880Z,3.5021
2024-03-24T11:15:54.904Z,3.6126
2024-03-24T11:16:57.408Z,3.9250
2024-03-24T11:17:59.971Z,4.2484
2024-03-24T11:19:02.420Z,4.7098
2024-03-24T11:20:04.886Z,5.1422
2024-03-24T11:21:07.347Z,5.2235
2024-03-24T11:22:09.772Z,5.3164
2024-03-24T11:23:12.292Z,5.4091
2024-03-24T11:24:14.747Z,5.8315
2024-03-24T11:25:17.350Z,5.7419
2024-03-24T11:26:19.898Z,5.8990
2024-03-24T11:27:22.926Z,6.0878
2024-03-24T11:28:23.083Z,6.3052
2024-03-24T11:29:26.177Z,6.5525
2024-03-24T11:30:29.177Z,7.1092
2024-03-24T11:31:32.167Z,7.2396
2024-03-24T11:32:35.178Z,7.7615
2024-03-24T11:33:38.220Z,7.5574
2024-03-24T11:34:41.248Z,7.2137
2024-03-24T11:35:44.340Z,7.0314
2024-03-24T11:36:47.375Z,6.9386
2024-03-24T11:37:50.445Z,7.1945
2024-03-24T11:38:53.418Z,7.6801
2024-03-24T11:39:56.495Z,7.9203
2024-03-24T11:40:59.539Z,8.2720
2024-03-24T11:42:02.592Z,8.7554
2024-03-24T11:43:05.619Z,8.4211
2024-03-24T11:44:08.645Z,8.3891
2024-03-24T11:45:11.727Z,8.3649
2024-03-24T11:46:14.717Z,8.5208
2024-03-24T11:47:17.778Z,8.8082
2024-03-24T11:48:20.829Z,9.3961
2024-03-24T11:49:23.849Z,9.3430
2024-03-24T11:50:27.239Z,9.3075
2024-03-24T11:51:30.262Z,8.6215
2024-03-24T11:52:33.366Z,8.4922
2024-03-24T11:53:36.395Z,8.8952
2024-03-24T11:54:39.420Z,9.1685
2024-03-24T11:55:42.419Z,9.2802
2024-03-24T11:56:45.465Z,9.0353
2024-03-24T11:57:48.529Z,9.0009
2024-03-24T11:58:51.540Z,8.7318
2024-03-24T11:59:54.576Z,8.7583
2024-03-24T12:00:57.628Z,8.9006
2024-03-24T12:02:00.662Z,9.6449
2024-03-24T12:03:03.747Z,9.6877
2024-03-24T12:04:06.736Z,9.1896
2024-03-24T12:05:09.748Z,9.1504
2024-03-24T12:06:12.798Z,8.8263
2024-03-24T12:07:15.898Z,8.8217
2024-03-24T12:08:18.908Z,8.6257
2024-03-24T12:09:21.921Z,8.5664
2024-03-24T12:10:24.987Z,8.5575
2024-03-24T12:11:28.027Z,8.2707
2024-03-24T12:12:31.067Z,8.9961
2024-03-24T12:13:34.116Z,9.4916
2024-03-24T12:14:37.146Z,9.2046
2024-03-24T12:15:40.171Z,8.9679
2024-03-24T12:16:43.247Z,8.8205
2024-03-24T12:17:46.287Z,8.8315
2024-03-24T12:18:49.306Z,8.7996
2024-03-24T12:19:52.372Z,8.7841
2024-03-24T12:20:55.504Z,9.5326
2024-03-24T12:21:58.570Z,9.8655
2024-03-24T12:23:01.606Z,9.6013
2024-03-24T12:24:04.826Z,9.9904
2024-03-24T12:25:07.824Z,8.9442
2024-03-24T12:26:10.834Z,8.5600
2024-03-24T12:27:13.940Z,8.7635
2024-03-24T12:28:16.985Z,9.7281
2024-03-24T12:29:20.020Z,10.0476
2024-03-24T12:30:23.074Z,10.3678
2024-03-24T12:31:26.426Z,9.7435
2024-03-24T12:32:29.461Z,10.1272
2024-03-24T12:33:32.499Z,9.5023
2024-03-24T12:34:35.540Z,9.6594
2024-03-24T12:35:38.588Z,9.0246
2024-03-24T12:36:41.618Z,8.4287
2024-03-24T12:37:44.698Z,8.0731
2024-03-24T12:38:47.719Z,7.7801
2024-03-24T12:39:50.736Z,7.5939
2024-03-24T12:40:55.245Z,7.6193
2024-03-24T12:41:54.968Z,7.5185
2024-03-24T12:42:58.160Z,7.6576
2024-03-24T12:44:01.303Z,8.2385
2024-03-24T12:45:04.353Z,8.2397
2024-03-24T12:46:07.367Z,9.9361
2024-03-24T12:47:10.432Z,10.4850
2024-03-24T12:48:13.498Z,10.2613
2024-03-24T12:49:16.496Z,10.3555
2024-03-24T12:51:22.647Z,9.9236
2024-03-24T12:52:25.646Z,10.2366
2024-03-24T12:53:28.676Z,10.8241
2024-03-24T12:54:31.701Z,10.9116
2024-03-24T12:55:34.757Z,10.5921
2024-03-24T12:56:37.779Z,10.9131
2024-03-24T12:57:40.819Z,10.8072
2024-03-24T12:58:43.863Z,10.8433
2024-03-24T12:59:46.896Z,11.2511
2024-03-24T13:00:49.956Z,10.8133
2024-03-24T13:01:53.075Z,10.6764
2024-03-24T13:02:56.119Z,10.3657
2024-03-24T13:03:59.156Z,10.3761
2024-03-24T13:05:02.171Z,11.0100